Strona główna
METAR-TAF:

METAR-TAF

Lotnisko :

Brisbane, Australia

Port lotniczy Brisbane

Szerokość geograficzna: 27-23S, Długość geograficzna: 153-06E, wysokość: 4 m

Aktualna obserwacja pogody

Raport powstał 10 minut temu, godzina 19:00 UTC
Wiatr 5 kt od południe
Temperatura 19°C
Wilgotność 88%
Ciśnienie 1014 hPa
Widzialność 10 km lub więcej
Brak chmur poniżej 1500 m i brak chmur cumulonimbus

METAR: YBBN 261900Z 19005KT CAVOK 19/17 Q1014

czas: 05:10 (19:10 UTC)

Prognoza

Raport powstał 1 godzina i 50 minut temu, godzina 17:20 UTC
Prognoza ważna od 26 godzina 18 UTC do 27 godzina 24 UTC
Wiatr 7 kt od południowo-południowy zachód
Widzialność 10 km lub więcej
Mało chmury na wysokości 3000 ft
Od 27 godzina 0000 UTC
Wiatr 14 kt od południowo-południowy wschód
Widzialność 10 km lub więcej
Rozproszone chmury na wysokości 4000 ft
Od 27 godzina 1000 UTC
Wiatr 12 kt od południe
Widzialność 10 km lub więcej
Mało chmury na wysokości 2000 ft

TAF: YBBN 261720Z 2618/2724 21007KT 9999 FEW030 FM270000 16014KT 9999 SCT040 FM271000 19012KT 9999 FEW020

Obserwacja i prognoza pogody dla ponad 4000 lotnisk (raport METAR i TAF).

Dostępne stacje oznaczono żółtymi i czerwonymi punktami na mapie.

Najedź kursorem aby zobaczyć nazwę stacji.

Kliknij aby zobaczyć obserwacje i prognozy pogody.

Aby zmienić mapę: kliknij na zielony przycisk z czarnym krzyżykiem, aby powiększyć; na zielony przycisk z myślnikiem, aby pomniejszyć; na zielone strzałki, aby przejść do map sąsiednich.


METAR-TAF: